Time;durP1;ratioP1;P1;durP2;ratioP2;P2;SDS_P1;SDS_P2;PMS_P1;PMS_P2;Temp;Humidity;BMP_temperature;BMP_pressure;BME280_temperature;BME280_humidity;BME280_pressure;Samples;Min_cycle;Max_cycle;Signal;HPM_P1;HPM_P2
2021/01/01 00:00:14;;;;;;;5.00;4.12;;;;;;;3.67;86.59;91944.20;1835184;77;21667;-79
2021/01/01 00:02:42;;;;;;;9.65;6.05;;;;;;;3.71;85.82;91939.58;1819979;78;21162;-79
2021/01/01 00:05:15;;;;;;;4.80;2.83;;;;;;;3.74;85.54;91940.16;1819916;78;21190;-79
2021/01/01 00:07:40;;;;;;;6.22;4.85;;;;;;;3.80;84.43;91945.31;1819915;78;21197;-80
2021/01/01 00:10:09;;;;;;;3.27;2.98;;;;;;;3.86;84.94;91943.77;1820748;78;21376;-76
2021/01/01 00:12:37;;;;;;;2.72;2.52;;;;;;;3.85;84.42;91936.86;1821949;78;21131;-79
2021/01/01 00:15:06;;;;;;;3.02;2.72;;;;;;;3.83;84.70;91946.64;1821122;78;21333;-79
2021/01/01 00:17:33;;;;;;;3.85;2.92;;;;;;;3.80;85.55;91952.82;1820107;78;21095;-79
2021/01/01 00:20:01;;;;;;;5.22;4.10;;;;;;;3.75;85.51;91956.47;1820564;78;21103;-79
2021/01/01 00:22:29;;;;;;;2.50;2.20;;;;;;;3.71;86.25;91963.77;1821185;78;21629;-80
2021/01/01 00:24:56;;;;;;;2.17;1.98;;;;;;;3.65;86.02;91958.03;1820668;78;21999;-80
2021/01/01 00:27:29;;;;;;;1.92;1.80;;;;;;;3.62;86.41;91952.84;1820710;78;21470;-80
2021/01/01 00:29:57;;;;;;;2.37;2.15;;;;;;;3.59;86.80;91960.34;1788301;78;21351;-80
2021/01/01 00:32:27;;;;;;;3.20;2.72;;;;;;;3.53;86.79;91957.08;1834232;78;21606;-80
2021/01/01 00:34:55;;;;;;;2.90;2.60;;;;;;;3.52;87.07;91952.86;1821964;78;21582;-79
2021/01/01 00:37:23;;;;;;;2.45;2.10;;;;;;;3.51;87.31;91952.67;1856480;77;21947;-80
2021/01/01 00:39:50;;;;;;;3.37;2.47;;;;;;;3.47;87.31;91944.61;1833208;77;21110;-80
2021/01/01 00:42:17;;;;;;;2.45;2.25;;;;;;;3.46;87.28;91941.75;1820610;78;21266;-80
2021/01/01 00:44:45;;;;;;;2.83;2.37;;;;;;;3.44;87.27;91942.70;1819840;78;21079;-80
2021/01/01 00:47:12;;;;;;;3.10;2.80;;;;;;;3.43;87.34;91951.16;1820154;78;21192;-80
2021/01/01 00:49:40;;;;;;;2.80;2.60;;;;;;;3.40;87.51;91941.35;1859306;77;21942;-80
2021/01/01 00:52:07;;;;;;;3.65;2.65;;;;;;;3.41;87.33;91942.88;1829904;77;22185;-81
2021/01/01 00:54:35;;;;;;;5.40;3.25;;;;;;;3.42;87.45;91932.89;1821254;78;21091;-79
2021/01/01 00:57:03;;;;;;;4.15;3.40;;;;;;;3.43;87.31;91943.09;1820563;78;21091;-79
2021/01/01 00:59:30;;;;;;;4.05;3.10;;;;;;;3.45;87.45;91941.53;1823252;77;21358;-80
2021/01/01 01:01:57;;;;;;;3.10;2.80;;;;;;;3.48;87.38;91936.73;1860974;77;21103;-79
2021/01/01 01:04:25;;;;;;;3.10;2.80;;;;;;;3.52;87.05;91944.80;1827280;77;21131;-80
2021/01/01 01:06:53;;;;;;;4.47;3.17;;;;;;;3.55;86.78;91946.72;1845417;77;21126;-79
2021/01/01 01:09:20;;;;;;;3.37;3.08;;;;;;;3.54;86.62;91952.67;1845732;77;21091;-80
2021/01/01 01:11:48;;;;;;;3.05;2.60;;;;;;;3.55;86.76;91948.83;1819726;78;21379;-79
2021/01/01 01:14:15;;;;;;;3.33;2.65;;;;;;;3.54;86.78;91943.27;1821022;78;21094;-80
2021/01/01 01:16:43;;;;;;;2.87;2.58;;;;;;;3.54;86.67;91945.19;1821631;78;21143;-80
2021/01/01 01:19:10;;;;;;;3.55;2.70;;;;;;;3.52;86.81;91944.80;1821531;77;21114;-80
2021/01/01 01:21:38;;;;;;;2.92;2.62;;;;;;;3.49;86.59;91937.50;1821395;78;21109;-80
2021/01/01 01:24:06;;;;;;;3.98;2.70;;;;;;;3.49;86.38;91949.02;1821781;78;21192;-80
2021/01/01 01:26:34;;;;;;;3.22;2.92;;;;;;;3.50;85.81;91942.50;1821715;78;21094;-79
2021/01/01 01:29:02;;;;;;;3.98;3.40;;;;;;;3.51;85.66;91942.69;1822065;78;21150;-79
2021/01/01 01:31:29;;;;;;;3.95;3.00;;;;;;;3.55;85.30;91941.34;1821549;78;21512;-79
2021/01/01 01:33:56;;;;;;;2.90;2.55;;;;;;;3.57;84.57;91942.50;1820560;78;21166;-79
2021/01/01 01:36:24;;;;;;;4.87;3.87;;;;;;;3.59;84.79;91936.72;1820011;77;21213;-80
2021/01/01 01:38:51;;;;;;;3.02;2.72;;;;;;;3.56;84.49;91938.26;1820718;78;21189;-79
2021/01/01 01:41:19;;;;;;;3.20;2.90;;;;;;;3.59;84.60;91935.38;1821180;78;21470;-80
2021/01/01 01:43:46;;;;;;;4.97;3.50;;;;;;;3.63;84.67;91928.84;1820623;78;21186;-79
2021/01/01 01:46:14;;;;;;;7.10;4.83;;;;;;;3.69;84.40;91935.19;1820515;78;21152;-79
2021/01/01 01:48:41;;;;;;;6.42;3.62;;;;;;;3.70;84.62;91929.98;1837020;77;22239;-79
2021/01/01 01:51:09;;;;;;;5.53;3.72;;;;;;;3.68;85.08;91933.05;1815845;78;21202;-80
2021/01/01 01:53:40;;;;;;;3.35;3.05;;;;;;;3.67;84.23;91936.90;1775659;80;21203;-80
2021/01/01 01:56:07;;;;;;;3.20;2.90;;;;;;;3.67;84.85;91934.79;1854211;77;21234;-79
2021/01/01 01:58:36;;;;;;;3.42;3.12;;;;;;;3.62;84.80;91928.66;1826711;77;21155;-80
2021/01/01 02:01:04;;;;;;;4.30;3.90;;;;;;;3.60;85.21;91936.33;1819313;78;22662;-79
2021/01/01 02:03:33;;;;;;;4.53;3.70;;;;;;;3.58;85.33;91940.58;1832852;77;21154;-79
2021/01/01 02:06:01;;;;;;;4.20;3.25;;;;;;;3.54;85.72;91933.86;1856050;77;21146;-80
2021/01/01 02:08:28;;;;;;;3.27;2.80;;;;;;;3.51;85.75;91939.23;1819011;78;21155;-80
2021/01/01 02:10:58;;;;;;;4.67;3.87;;;;;;;3.45;85.89;91936.16;1820184;78;21181;-80
2021/01/01 02:13:25;;;;;;;2.65;2.30;;;;;;;3.46;86.03;91949.81;1820571;78;21337;-79
2021/01/01 02:15:53;;;;;;;2.98;2.52;;;;;;;3.43;85.59;91943.09;1820538;78;21263;-80
2021/01/01 02:18:37;;;;;;;2.22;1.95;;;;;;;3.44;85.46;91935.98;1818853;78;21198;-81
2021/01/01 02:21:11;;;;;;;2.77;2.10;;;;;;;3.43;85.52;91937.14;1824177;77;21155;-79
2021/01/01 02:23:39;;;;;;;2.47;2.27;;;;;;;3.43;85.50;91927.73;1861330;77;21135;-78
2021/01/01 02:26:07;;;;;;;3.17;2.65;;;;;;;3.43;84.85;91925.62;1824460;77;21652;-82
2021/01/01 02:28:34;;;;;;;6.17;4.35;;;;;;;3.41;85.26;91925.99;1821126;77;21181;-80
2021/01/01 02:31:02;;;;;;;4.87;3.00;;;;;;;3.40;85.32;91919.86;1820586;78;21201;-79
2021/01/01 02:33:29;;;;;;;2.62;2.42;;;;;;;3.40;85.62;91921.78;1820769;78;22048;-79
2021/01/01 02:35:57;;;;;;;3.72;3.33;;;;;;;3.37;85.82;91917.94;1820857;78;22040;-79
2021/01/01 02:38:25;;;;;;;4.22;3.20;;;;;;;3.36;85.99;91927.73;1808090;79;21605;-79
2021/01/01 02:40:52;;;;;;;2.75;2.45;;;;;;;3.35;86.16;91928.90;1820383;77;21178;-79
2021/01/01 02:43:20;;;;;;;3.85;3.45;;;;;;;3.33;86.45;91927.16;1820336;78;21205;-80
2021/01/01 02:45:47;;;;;;;3.42;2.98;;;;;;;3.31;86.43;91922.18;1833094;77;21223;-80
2021/01/01 02:48:20;;;;;;;2.55;2.35;;;;;;;3.29;86.73;91924.48;1857181;77;21161;-79
2021/01/01 02:50:49;;;;;;;3.17;2.87;;;;;;;3.29;86.48;91918.34;1820559;78;21197;-79
2021/01/01 02:53:17;;;;;;;3.02;2.65;;;;;;;3.30;86.32;91928.69;1821925;77;21553;-79
2021/01/01 02:55:44;;;;;;;2.60;2.40;;;;;;;3.32;86.33;91924.29;1822005;78;21166;-80
2021/01/01 02:58:11;;;;;;;3.30;3.00;;;;;;;3.33;86.54;91933.30;1821393;78;21201;-79
2021/01/01 03:00:40;;;;;;;5.70;4.20;;;;;;;3.33;86.80;91922.55;1821514;78;21511;-78
2021/01/01 03:03:09;;;;;;;2.83;2.35;;;;;;;3.34;86.34;91927.34;1821411;78;22023;-80
2021/01/01 03:05:36;;;;;;;2.87;2.27;;;;;;;3.32;86.52;91931.01;1819837;78;21447;-80
2021/01/01 03:08:05;;;;;;;2.67;2.45;;;;;;;3.30;86.43;91929.27;1820005;78;21163;-80
2021/01/01 03:10:33;;;;;;;3.12;2.85;;;;;;;3.29;86.52;91939.25;1820868;78;21184;-79
2021/01/01 03:13:01;;;;;;;3.52;2.60;;;;;;;3.27;86.50;91939.44;1820031;78;21182;-80
2021/01/01 03:15:29;;;;;;;3.75;2.47;;;;;;;3.28;86.44;91940.41;1820046;78;21366;-79
2021/01/01 03:17:56;;;;;;;3.60;3.17;;;;;;;3.28;86.55;91944.44;1820268;78;21178;-79
2021/01/01 03:20:24;;;;;;;2.67;2.40;;;;;;;3.29;86.67;91951.92;1820466;78;21178;-81
2021/01/01 03:22:52;;;;;;;2.72;2.33;;;;;;;3.25;86.60;91945.78;1820131;78;21186;-79
2021/01/01 03:25:19;;;;;;;3.12;2.55;;;;;;;3.26;86.69;91949.42;1819754;78;22191;-78
2021/01/01 03:27:47;;;;;;;2.40;2.20;;;;;;;3.28;86.88;91944.44;1820104;78;21195;-79
2021/01/01 03:30:15;;;;;;;2.70;2.50;;;;;;;3.30;86.82;91942.12;1819961;78;21167;-79
2021/01/01 03:32:42;;;;;;;2.98;2.10;;;;;;;3.31;86.79;91950.95;1822211;78;21464;-80
2021/01/01 03:35:11;;;;;;;2.60;2.20;;;;;;;3.33;86.82;91942.70;1821699;78;21176;-78
2021/01/01 03:37:38;;;;;;;2.58;2.20;;;;;;;3.34;86.75;91955.55;1822470;78;21190;-79
2021/01/01 03:40:06;;;;;;;2.15;1.90;;;;;;;3.33;86.65;91960.74;1822083;78;21324;-79
2021/01/01 03:42:34;;;;;;;1.92;1.70;;;;;;;3.31;86.67;91969.75;1822177;78;21142;-79
2021/01/01 03:45:01;;;;;;;2.30;1.85;;;;;;;3.30;86.82;91968.22;1821511;78;21176;-80
2021/01/01 03:47:29;;;;;;;2.47;1.77;;;;;;;3.27;86.96;91975.16;1821630;77;21202;-79
2021/01/01 03:49:56;;;;;;;1.67;1.57;;;;;;;3.24;87.00;91970.54;1821707;78;21186;-79
2021/01/01 03:52:24;;;;;;;0.80;0.80;;;;;;;3.20;86.82;91974.35;1821190;78;21372;-79
2021/01/01 03:54:51;;;;;;;1.60;1.40;;;;;;;3.18;86.58;91975.33;1820803;78;21232;-80
2021/01/01 03:57:18;;;;;;;1.07;1.00;;;;;;;3.14;86.73;91984.73;1821707;78;21182;-80
2021/01/01 03:59:46;;;;;;;1.32;1.22;;;;;;;3.11;86.88;91986.25;1822212;78;21163;-79
2021/01/01 04:02:14;;;;;;;2.80;2.50;;;;;;;3.09;86.83;91982.44;1822183;78;21130;-79
2021/01/01 04:04:43;;;;;;;1.35;1.25;;;;;;;3.07;86.86;91982.80;1822907;77;21183;-79
2021/01/01 04:07:11;;;;;;;1.82;1.65;;;;;;;3.07;87.32;91984.14;1822382;78;21685;-80
2021/01/01 04:09:40;;;;;;;1.60;1.30;;;;;;;3.08;87.69;91991.62;1821093;78;21190;-79
2021/01/01 04:12:08;;;;;;;1.17;1.07;;;;;;;3.05;87.59;91999.88;1821787;78;21711;-79
2021/01/01 04:14:36;;;;;;;2.05;1.52;;;;;;;3.02;87.35;91993.16;1822066;78;21218;-80
2021/01/01 04:17:04;;;;;;;1.25;1.15;;;;;;;3.02;87.49;92003.91;1822289;78;21368;-79
2021/01/01 04:19:33;;;;;;;2.70;1.65;;;;;;;3.00;87.65;92000.82;1822655;78;21062;-80
2021/01/01 04:22:01;;;;;;;0.70;0.70;;;;;;;2.99;87.47;92000.05;1822070;78;21162;-81
2021/01/01 04:24:29;;;;;;;0.93;0.80;;;;;;;2.97;86.92;92002.38;1822565;78;21625;-80
2021/01/01 04:26:57;;;;;;;0.72;0.60;;;;;;;2.93;86.49;92004.25;1822062;78;21703;-80
2021/01/01 04:29:25;;;;;;;0.82;0.82;;;;;;;2.91;86.09;92005.22;1822293;78;21656;-80
2021/01/01 04:31:53;;;;;;;1.47;0.85;;;;;;;2.89;86.03;92003.48;1822395;78;21641;-80
2021/01/01 04:34:21;;;;;;;0.98;0.98;;;;;;;2.88;86.23;92015.38;1822425;78;21178;-79
2021/01/01 04:36:49;;;;;;;0.60;0.60;;;;;;;2.88;86.15;92013.45;1822036;78;21456;-80
2021/01/01 04:39:17;;;;;;;3.65;1.10;;;;;;;2.91;86.14;92013.28;1822175;78;21194;-80
2021/01/01 04:41:46;;;;;;;2.35;1.85;;;;;;;2.94;85.94;92021.92;1821816;78;21185;-79
2021/01/01 04:44:15;;;;;;;1.47;1.37;;;;;;;2.94;85.03;92017.89;1822732;78;21078;-79
2021/01/01 04:46:43;;;;;;;1.95;1.47;;;;;;;2.93;85.09;92027.08;1763140;78;21163;-79
2021/01/01 04:49:11;;;;;;;2.75;2.25;;;;;;;2.97;85.02;92023.06;1839595;77;21127;-79
2021/01/01 04:51:40;;;;;;;0.85;0.85;;;;;;;3.00;84.95;92031.13;1853343;77;21487;-79
2021/01/01 04:54:09;;;;;;;1.10;0.80;;;;;;;3.00;83.65;92033.81;1823046;77;21519;-79
2021/01/01 04:56:48;;;;;;;1.17;1.10;;;;;;;3.01;84.02;92039.39;1821977;78;21202;-80
2021/01/01 04:59:17;;;;;;;0.78;0.78;;;;;;;3.01;83.98;92039.39;1821591;78;21142;-79
2021/01/01 05:01:45;;;;;;;2.17;1.75;;;;;;;3.00;82.75;92045.13;1821399;78;21402;-79
2021/01/01 05:04:13;;;;;;;1.22;0.88;;;;;;;2.96;82.77;92038.98;1821369;78;21327;-80
2021/01/01 05:06:42;;;;;;;1.77;1.30;;;;;;;2.94;83.42;92048.77;1821986;78;21183;-79
2021/01/01 05:09:13;;;;;;;1.30;1.20;;;;;;;2.91;83.25;92050.30;1822162;78;21163;-80
2021/01/01 05:11:41;;;;;;;2.33;1.60;;;;;;;2.88;83.34;92057.76;1821784;78;21169;-79
2021/01/01 05:14:09;;;;;;;1.17;1.07;;;;;;;2.86;83.83;92059.30;1822152;78;21174;-80
2021/01/01 05:16:38;;;;;;;0.88;0.88;;;;;;;2.83;84.09;92056.80;1821290;78;21170;-80
2021/01/01 05:19:10;;;;;;;1.72;1.62;;;;;;;2.79;84.12;92055.25;1821568;78;21198;-80
2021/01/01 05:21:39;;;;;;;1.90;1.10;;;;;;;2.77;84.39;92066.36;1821909;78;21185;-80
2021/01/01 05:24:08;;;;;;;0.60;0.60;;;;;;;2.75;84.21;92065.98;1821998;78;21189;-80
2021/01/01 05:26:39;;;;;;;1.57;1.42;;;;;;;2.74;84.08;92063.08;1786443;78;21221;-79
2021/01/01 05:29:13;;;;;;;1.55;0.98;;;;;;;2.77;83.79;92067.70;1805438;78;21160;-80
2021/01/01 05:31:42;;;;;;;1.15;1.00;;;;;;;2.75;83.88;92075.38;1821647;78;21811;-79
2021/01/01 05:34:13;;;;;;;1.30;1.20;;;;;;;2.73;83.96;92071.52;1821824;78;21222;-80
2021/01/01 05:36:46;;;;;;;2.72;2.15;;;;;;;2.71;83.53;92079.17;1822917;78;21205;-78
2021/01/01 05:39:22;;;;;;;4.58;3.72;;;;;;;2.70;83.72;92081.66;1821796;78;21166;-79
2021/01/01 05:41:53;;;;;;;2.15;1.95;;;;;;;2.69;83.75;92083.59;1822005;78;21190;-78
2021/01/01 05:44:32;;;;;;;3.10;2.47;;;;;;;2.70;83.71;92089.72;1822004;77;22357;-78
2021/01/01 05:47:06;;;;;;;2.85;2.33;;;;;;;2.67;83.67;92089.89;1821533;78;21162;-79
2021/01/01 05:49:42;;;;;;;;;;;;;;;2.63;84.09;92097.16;1790383;78;21178;-79
2021/01/01 05:52:23;;;;;;;7.30;3.00;;;;;;;2.58;84.31;92097.53;1785481;78;20498;-79
2021/01/01 05:55:00;;;;;;;4.50;2.58;;;;;;;2.50;84.30;92103.44;1787232;78;21079;-79
2021/01/01 05:57:39;;;;;;;1.82;1.62;;;;;;;2.42;84.77;92105.31;1812825;78;21137;-79
2021/01/01 06:00:13;;;;;;;3.12;2.60;;;;;;;2.39;85.12;92106.64;1785308;78;21201;-80
2021/01/01 06:02:48;;;;;;;3.90;3.25;;;;;;;2.36;85.40;92113.52;1821245;78;21756;-79
2021/01/01 06:05:17;;;;;;;4.17;3.58;;;;;;;2.36;85.68;92110.06;1816829;77;21664;-79
2021/01/01 06:07:47;;;;;;;11.78;8.20;;;;;;;2.35;85.86;92118.69;1811902;78;21146;-79
2021/01/01 06:10:19;;;;;;;9.93;6.33;;;;;;;2.31;85.89;92123.84;1820412;78;22072;-78
2021/01/01 06:12:55;;;;;;;8.08;5.55;;;;;;;2.24;86.33;92127.24;1784563;78;21194;-79
2021/01/01 06:15:25;;;;;;;12.25;7.60;;;;;;;2.22;86.54;92128.75;1814982;77;21636;-80
2021/01/01 06:17:56;;;;;;;13.45;8.70;;;;;;;2.17;86.66;92133.33;1791269;77;21183;-80
2021/01/01 06:20:28;;;;;;;10.28;7.50;;;;;;;2.10;86.79;92142.66;1776729;78;21218;-80
2021/01/01 06:23:01;;;;;;;7.95;4.83;;;;;;;2.01;87.02;92127.48;1769435;77;21233;-79
2021/01/01 06:25:30;;;;;;;15.43;8.28;;;;;;;1.99;87.25;92133.77;1851576;77;21126;-79
2021/01/01 06:28:00;;;;;;;8.60;4.97;;;;;;;1.98;87.36;92129.56;1852446;77;21178;-80
2021/01/01 06:30:29;;;;;;;12.55;7.28;;;;;;;1.93;87.03;92133.94;1777541;77;21219;-78
2021/01/01 06:32:58;;;;;;;10.48;6.50;;;;;;;1.93;87.18;92135.27;1777119;79;21190;-79
2021/01/01 06:35:27;;;;;;;10.82;6.00;;;;;;;1.91;87.28;92139.65;1785608;76;21569;-79
2021/01/01 06:37:56;;;;;;;5.62;3.60;;;;;;;1.88;87.18;92150.34;1844348;76;21174;-80
2021/01/01 06:40:29;;;;;;;2.98;2.27;;;;;;;1.87;87.03;92147.47;1777905;79;21625;-79
2021/01/01 06:43:07;;;;;;;1.45;1.35;;;;;;;1.87;86.54;92160.88;1776734;80;21144;-80
2021/01/01 06:45:46;;;;;;;3.08;2.52;;;;;;;1.88;86.04;92155.16;1822837;77;21158;-79
2021/01/01 06:48:31;;;;;;;2.47;1.80;;;;;;;1.92;85.56;92160.55;1820819;78;21385;-79
2021/01/01 06:50:59;;;;;;;2.05;1.60;;;;;;;1.93;84.10;92164.19;1821652;78;21190;-79
2021/01/01 06:53:28;;;;;;;3.45;2.87;;;;;;;1.96;82.98;92176.09;1821558;77;21201;-79
2021/01/01 06:56:10;;;;;;;1.32;0.93;;;;;;;1.95;82.12;92175.30;1822392;78;21437;-80
2021/01/01 06:58:41;;;;;;;1.70;1.57;;;;;;;1.96;80.63;92173.41;1822373;78;21960;-78
2021/01/01 07:01:18;;;;;;;4.20;2.67;;;;;;;1.96;79.71;92181.45;1822600;78;22606;-78
2021/01/01 07:03:50;;;;;;;1.00;0.85;;;;;;;1.94;77.35;92191.77;1822274;78;21126;-79
2021/01/01 07:06:23;;;;;;;1.60;1.30;;;;;;;1.93;77.45;92185.64;1796657;78;21603;-79
2021/01/01 07:08:51;;;;;;;1.25;1.00;;;;;;;1.92;77.61;92204.21;1828507;77;21174;-78
2021/01/01 07:11:32;;;;;;;1.32;1.10;;;;;;;1.92;76.86;92193.48;1813009;77;21162;-79
2021/01/01 07:14:06;;;;;;;1.20;0.70;;;;;;;1.93;77.58;92203.64;1819582;78;21251;-79
2021/01/01 07:16:40;;;;;;;0.88;0.88;;;;;;;1.92;76.67;92201.53;1822254;78;21166;-79
2021/01/01 07:19:08;;;;;;;1.25;0.68;;;;;;;1.90;75.59;92202.45;1855980;77;21174;-79
2021/01/01 07:21:38;;;;;;;0.50;0.40;;;;;;;1.90;76.98;92217.20;1825957;77;21787;-79
2021/01/01 07:24:07;;;;;;;0.78;0.42;;;;;;;1.91;77.39;92221.41;1820812;78;21189;-79
2021/01/01 07:26:35;;;;;;;0.50;0.30;;;;;;;1.93;77.21;92222.41;1820587;78;21182;-79
2021/01/01 07:29:04;;;;;;;0.68;0.62;;;;;;;1.94;77.64;92219.34;1820726;78;21150;-78
2021/01/01 07:31:33;;;;;;;0.78;0.78;;;;;;;1.94;74.54;92219.34;1820235;78;21170;-78
2021/01/01 07:34:11;;;;;;;1.57;1.10;;;;;;;1.93;74.67;92238.48;1819648;78;21205;-78
2021/01/01 07:36:39;;;;;;;1.12;0.78;;;;;;;1.91;73.52;92222.76;1821665;78;21668;-78
2021/01/01 07:39:07;;;;;;;1.05;0.65;;;;;;;1.90;74.04;92227.92;1821220;78;21194;-78
2021/01/01 07:41:36;;;;;;;1.47;0.90;;;;;;;1.92;74.89;92240.98;1821222;78;21166;-79
2021/01/01 07:44:05;;;;;;;6.67;4.20;;;;;;;1.91;75.42;92256.27;1821231;78;21731;-79
2021/01/01 07:46:34;;;;;;;1.70;1.52;;;;;;;1.88;75.19;92264.27;1821686;78;21182;-80
2021/01/01 07:49:02;;;;;;;2.60;1.10;;;;;;;1.84;75.25;92264.27;1821412;78;21158;-78
2021/01/01 07:51:31;;;;;;;2.45;1.77;;;;;;;1.82;75.92;92265.19;1819978;78;21438;-79
2021/01/01 07:54:01;;;;;;;2.25;1.60;;;;;;;1.82;76.63;92268.45;1815475;78;21182;-80
2021/01/01 07:56:33;;;;;;;2.20;1.10;;;;;;;1.83;76.71;92268.64;1820698;78;21166;-79
2021/01/01 07:59:01;;;;;;;1.27;1.15;;;;;;;1.81;76.27;92264.23;1821639;78;21154;-79
2021/01/01 08:01:30;;;;;;;0.47;0.42;;;;;;;1.75;75.12;92270.48;1821624;78;21162;-78
2021/01/01 08:03:58;;;;;;;1.10;0.90;;;;;;;1.71;75.18;92266.98;1821839;78;22064;-79
2021/01/01 08:06:26;;;;;;;0.85;0.85;;;;;;;1.68;76.31;92281.89;1821213;78;21239;-77
2021/01/01 08:09:03;;;;;;;0.60;0.60;;;;;;;1.68;75.79;92273.08;1820962;78;21155;-77
2021/01/01 08:11:33;;;;;;;1.10;0.95;;;;;;;1.67;74.84;92285.71;1820142;78;21171;-78
2021/01/01 08:14:02;;;;;;;2.30;1.60;;;;;;;1.69;75.55;92288.02;1820612;78;21159;-79
2021/01/01 08:16:30;;;;;;;1.57;1.20;;;;;;;1.73;76.96;92293.41;1821195;78;22088;-79
2021/01/01 08:18:58;;;;;;;1.32;0.88;;;;;;;1.75;75.69;92301.88;1821183;78;21170;-80
2021/01/01 08:21:26;;;;;;;0.50;0.47;;;;;;;1.77;75.34;92312.98;1821288;78;21180;-76
2021/01/01 08:24:08;;;;;;;1.45;1.05;;;;;;;1.77;74.64;92312.98;1820432;78;21470;-78
2021/01/01 08:26:37;;;;;;;2.60;1.27;;;;;;;1.76;75.64;92313.55;1819758;78;21751;-79
2021/01/01 08:29:07;;;;;;;1.15;0.88;;;;;;;1.72;74.73;92312.75;1819421;78;21186;-79
2021/01/01 08:31:36;;;;;;;3.17;1.75;;;;;;;1.68;76.01;92317.30;1820020;78;21236;-79
2021/01/01 08:34:04;;;;;;;1.85;1.35;;;;;;;1.59;75.93;92319.50;1820145;78;21157;-78
2021/01/01 08:36:34;;;;;;;1.67;1.52;;;;;;;1.53;77.00;92327.08;1819828;78;21179;-78
2021/01/01 08:39:09;;;;;;;1.05;0.98;;;;;;;1.48;75.95;92327.41;1819953;78;21470;-79
2021/01/01 08:41:43;;;;;;;1.60;1.10;;;;;;;1.45;76.58;92332.91;1819904;78;21233;-78
2021/01/01 08:44:11;;;;;;;2.62;1.45;;;;;;;1.45;76.80;92328.13;1820172;78;21178;-78
2021/01/01 08:46:39;;;;;;;2.47;1.05;;;;;;;1.46;76.11;92332.34;1821891;78;21130;-78
2021/01/01 08:49:19;;;;;;;1.50;1.32;;;;;;;1.49;76.77;92343.68;1821310;78;21161;-78
2021/01/01 08:51:48;;;;;;;1.95;1.47;;;;;;;1.53;76.35;92341.81;1821342;78;21091;-75
2021/01/01 08:54:25;;;;;;;1.17;0.70;;;;;;;1.57;75.21;92344.53;1816718;78;22479;-78
2021/01/01 08:57:00;;;;;;;0.95;0.88;;;;;;;1.59;76.29;92346.30;1821975;78;28075;-77
2021/01/01 08:59:29;;;;;;;1.30;1.02;;;;;;;1.62;75.56;92358.97;1821267;78;21194;-81
2021/01/01 09:01:59;;;;;;;0.85;0.70;;;;;;;1.59;75.08;92360.46;1820104;78;21182;-78
2021/01/01 09:04:29;;;;;;;1.45;1.20;;;;;;;1.56;74.99;92358.50;1820383;77;21177;-80
2021/01/01 09:07:02;;;;;;;1.80;0.95;;;;;;;1.53;74.71;92366.50;1821960;78;22401;-78
2021/01/01 09:09:34;;;;;;;1.45;1.10;;;;;;;1.50;73.87;92359.95;1821126;78;21122;-78
2021/01/01 09:12:23;;;;;;;1.65;1.40;;;;;;;1.46;74.20;92363.16;1821806;78;21138;-78
2021/01/01 09:14:55;;;;;;;1.02;0.85;;;;;;;1.44;74.95;92363.53;1822065;78;21188;-78
2021/01/01 09:17:24;;;;;;;1.27;0.60;;;;;;;1.43;73.65;92371.37;1821323;78;21083;-78
2021/01/01 09:20:07;;;;;;;1.32;1.05;;;;;;;1.40;74.38;92380.13;1821357;78;21191;-75
2021/01/01 09:22:36;;;;;;;1.62;0.95;;;;;;;1.39;74.32;92376.45;1821795;78;21111;-78
2021/01/01 09:25:24;;;;;;;1.32;1.00;;;;;;;1.36;74.39;92375.29;1753403;80;21140;-79
2021/01/01 09:27:53;;;;;;;0.78;0.78;;;;;;;1.36;74.97;92380.64;1817774;77;21924;-78
2021/01/01 09:30:23;;;;;;;1.37;1.10;;;;;;;1.36;74.83;92381.22;1820485;77;21582;-76
2021/01/01 09:32:55;;;;;;;2.65;1.67;;;;;;;1.35;75.34;92376.97;1749229;81;21197;-78
2021/01/01 09:35:25;;;;;;;0.90;0.88;;;;;;;1.34;75.27;92386.15;1851494;77;21625;-78
2021/01/01 09:38:01;;;;;;;1.92;1.20;;;;;;;1.36;75.87;92390.02;1820460;77;21116;-79
2021/01/01 09:40:31;;;;;;;3.62;3.20;;;;;;;1.38;74.79;92387.73;1821428;78;22051;-76
2021/01/01 09:43:06;;;;;;;2.60;2.10;;;;;;;1.37;74.73;92393.47;1820841;78;21155;-79
2021/01/01 09:45:36;;;;;;;1.85;1.47;;;;;;;1.36;75.06;92387.91;1820043;78;21227;-80
2021/01/01 09:48:06;;;;;;;3.17;2.17;;;;;;;1.35;74.34;92388.45;1819639;78;21206;-75
2021/01/01 09:50:34;;;;;;;2.83;1.75;;;;;;;1.35;73.70;92395.72;1819198;78;21190;-77
2021/01/01 09:53:02;;;;;;;4.42;1.57;;;;;;;1.31;74.18;92398.92;1819913;78;21438;-78
2021/01/01 09:55:31;;;;;;;2.27;1.37;;;;;;;1.30;74.05;92401.41;1819410;78;21222;-78
2021/01/01 09:57:59;;;;;;;2.75;2.10;;;;;;;1.30;74.52;92398.16;1843070;77;21744;-78
2021/01/01 10:00:29;;;;;;;2.67;2.15;;;;;;;1.33;74.36;92402.79;1838067;77;21685;-77
2021/01/01 10:02:57;;;;;;;2.85;1.50;;;;;;;1.36;74.00;92402.08;1825331;77;21302;-80
2021/01/01 10:05:26;;;;;;;2.75;1.55;;;;;;;1.35;74.10;92402.42;1859566;77;21165;-80
2021/01/01 10:07:54;;;;;;;2.87;1.65;;;;;;;1.35;74.73;92405.09;1820470;77;21151;-79
2021/01/01 10:10:23;;;;;;;3.05;2.30;;;;;;;1.35;74.47;92407.77;1819521;78;22515;-77
2021/01/01 10:12:52;;;;;;;3.37;2.17;;;;;;;1.37;75.12;92402.27;1819880;78;21174;-77
2021/01/01 10:15:20;;;;;;;2.08;1.65;;;;;;;1.42;73.96;92402.52;1819312;78;21185;-80
2021/01/01 10:17:48;;;;;;;2.50;1.90;;;;;;;1.41;73.54;92403.66;1820615;77;21401;-75
2021/01/01 10:20:17;;;;;;;2.95;2.17;;;;;;;1.35;73.57;92400.51;1820507;78;22030;-78
2021/01/01 10:22:49;;;;;;;2.77;2.15;;;;;;;1.31;74.70;92408.30;1820576;77;21277;-78
2021/01/01 10:25:21;;;;;;;2.08;1.70;;;;;;;1.34;75.17;92398.97;1758996;78;21434;-80
2021/01/01 10:27:49;;;;;;;1.98;1.40;;;;;;;1.39;75.08;92403.23;1821314;78;21167;-77
2021/01/01 10:30:17;;;;;;;3.80;1.70;;;;;;;1.39;74.08;92393.31;1829364;77;21102;-77
2021/01/01 10:32:46;;;;;;;0.72;0.72;;;;;;;1.37;74.85;92404.95;1861714;77;21090;-81
2021/01/01 10:35:16;;;;;;;3.20;1.65;;;;;;;1.36;74.57;92408.00;1821127;78;21256;-78
2021/01/01 10:37:44;;;;;;;2.10;1.27;;;;;;;1.34;75.05;92400.88;1844649;77;21516;-78
2021/01/01 10:40:12;;;;;;;2.60;1.90;;;;;;;1.34;75.15;92404.33;1832367;77;21521;-79
2021/01/01 10:42:41;;;;;;;3.15;2.20;;;;;;;1.36;74.87;92399.97;1833098;77;21173;-77
2021/01/01 10:45:12;;;;;;;4.25;2.40;;;;;;;1.36;74.93;92402.64;1853811;77;21158;-77
2021/01/01 10:47:40;;;;;;;2.40;1.57;;;;;;;1.36;74.06;92404.75;1820721;78;21475;-76
2021/01/01 10:50:10;;;;;;;3.42;2.60;;;;;;;1.33;74.13;92398.00;1858301;77;21130;-81
2021/01/01 10:52:38;;;;;;;3.20;1.50;;;;;;;1.35;75.79;92407.20;1832582;77;21126;-81
2021/01/01 10:55:07;;;;;;;1.65;1.50;;;;;;;1.40;74.82;92400.78;1841145;77;21090;-78
2021/01/01 10:57:35;;;;;;;2.70;1.85;;;;;;;1.39;73.87;92393.86;1850434;77;21345;-80
2021/01/01 11:00:09;;;;;;;2.83;2.05;;;;;;;1.38;73.91;92405.72;1823570;77;21114;-78
2021/01/01 11:02:37;;;;;;;1.35;0.98;;;;;;;1.34;74.69;92405.67;1861456;77;21558;-81
2021/01/01 11:05:07;;;;;;;2.72;1.80;;;;;;;1.34;74.64;92411.59;1826697;77;21096;-81
2021/01/01 11:07:35;;;;;;;2.95;1.75;;;;;;;1.34;74.20;92403.56;1847322;77;21091;-77
2021/01/01 11:10:05;;;;;;;3.92;2.52;;;;;;;1.33;74.80;92406.04;1843780;77;21119;-77
2021/01/01 11:12:34;;;;;;;4.25;2.22;;;;;;;1.33;74.70;92407.38;1830036;77;21203;-78
2021/01/01 12:22:09;;;;;;;3.52;2.25;;;;;;;1.62;73.99;92465.59;1820681;78;21413;-79
2021/01/01 12:27:01;;;;;;;5.25;2.80;;;;;;;1.58;74.71;92488.09;1821440;78;21206;-75
2021/01/01 12:29:29;;;;;;;4.80;3.30;;;;;;;1.58;74.57;92484.06;1822312;78;21109;-79
2021/01/01 12:31:57;;;;;;;2.75;2.27;;;;;;;1.53;74.84;92485.73;1821778;78;21115;-81
2021/01/01 12:34:27;;;;;;;4.83;3.27;;;;;;;1.51;74.63;92487.44;1820183;78;21208;-79
2021/01/01 12:36:55;;;;;;;1.57;1.32;;;;;;;1.48;74.57;92488.72;1822020;78;21367;-77
2021/01/01 12:39:25;;;;;;;4.03;2.87;;;;;;;1.44;74.49;92502.06;1821620;78;21600;-78
2021/01/01 12:41:53;;;;;;;1.62;1.52;;;;;;;1.42;74.74;92507.00;1820638;77;21173;-80
2021/01/01 12:44:21;;;;;;;2.08;1.55;;;;;;;1.39;75.09;92513.06;1820840;78;21174;-82
2021/01/01 12:46:53;;;;;;;2.27;1.20;;;;;;;1.36;74.89;92505.20;1820334;78;22562;-80
2021/01/01 12:49:21;;;;;;;3.52;2.50;;;;;;;1.35;75.00;92510.33;1821808;77;21165;-80
2021/01/01 12:51:49;;;;;;;5.58;2.70;;;;;;;1.37;74.85;92522.05;1820461;78;21173;-79
2021/01/01 12:54:18;;;;;;;2.15;1.98;;;;;;;1.39;74.81;92512.53;1820716;78;21178;-79
2021/01/01 12:56:46;;;;;;;2.87;1.72;;;;;;;1.43;74.57;92524.64;1820973;78;21652;-81
2021/01/01 12:59:16;;;;;;;1.90;1.47;;;;;;;1.44;74.42;92516.23;1821314;78;22914;-82
2021/01/01 13:01:44;;;;;;;4.72;2.70;;;;;;;1.48;74.55;92526.23;1820959;78;21431;-79